Weather at Clark Regional Airport

Public forecast

Using degrees Fahrenheit for public forecast. Weather courtesy of forecast.io.

Current aviation weather report (METAR) for Clark Regional Airport

Report is more than 6 hours old.

2022/11/14 15:15 (retrieved 2 years ago)

KJVY 141515Z AUTO 13006KT 10SM CLR 04/M02 A3038 RMK AO2 PWINO

Closest aviation forecast (TAF) to Clark Regional Airport

Forecast is more than 12 hours old.

Closest forecast is Louisville Muhammad Ali International Airport, 11.5 nm (21.2 km) S.

2023/02/22 18:36 (retrieved 1 year ago)

TAF KSDF 221734Z 2218/2324 21022G30KT P6SM BKN040 FM230000 20023G30KT P6SM -SHRA OVC045 WS020/21048KT FM230800 23011KT P6SM SCT060 FM231100 20009KT P6SM SKC FM231500 23018G25KT P6SM SKC